createdAt,value
2018-09-08T00:01:59.588Z,9.87
2018-09-08T00:04:28.054Z,8.67
2018-09-08T00:07:01.949Z,7.20
2018-09-08T00:09:30.435Z,8.13
2018-09-08T00:11:58.939Z,7.33
2018-09-08T00:14:27.409Z,7.10
2018-09-08T00:17:00.946Z,6.90
2018-09-08T00:19:34.583Z,6.93
2018-09-08T00:22:08.362Z,6.93
2018-09-08T00:24:41.952Z,7.20
2018-09-08T00:27:09.660Z,7.57
2018-09-08T00:29:42.611Z,8.63
2018-09-08T00:32:13.133Z,9.53
2018-09-08T00:34:42.173Z,8.50
2018-09-08T00:37:11.076Z,7.53
2018-09-08T00:39:39.907Z,7.80
2018-09-08T00:42:08.325Z,8.20
2018-09-08T00:44:36.928Z,7.80
2018-09-08T00:47:05.411Z,6.90
2018-09-08T00:49:33.817Z,7.53
2018-09-08T00:52:02.191Z,7.27
2018-09-08T00:54:30.725Z,6.90
2018-09-08T00:56:59.114Z,7.20
2018-09-08T00:59:27.595Z,7.57
2018-09-08T01:01:56.119Z,10.67
2018-09-08T01:04:24.438Z,8.53
2018-09-08T01:06:53.031Z,8.13
2018-09-08T01:09:21.500Z,7.23
2018-09-08T01:11:49.987Z,7.90
2018-09-08T01:14:18.382Z,8.07
2018-09-08T01:16:46.889Z,7.70
2018-09-08T01:19:15.745Z,7.57
2018-09-08T01:21:44.466Z,7.37
2018-09-08T01:24:12.922Z,8.50
2018-09-08T01:26:41.270Z,7.83
2018-09-08T01:29:09.653Z,10.33
2018-09-08T01:31:38.046Z,8.30
2018-09-08T01:34:06.443Z,7.50
2018-09-08T01:36:34.877Z,9.17
2018-09-08T01:39:03.621Z,7.70
2018-09-08T01:41:32.038Z,8.23
2018-09-08T01:44:00.519Z,8.40
2018-09-08T01:46:28.959Z,9.20
2018-09-08T01:48:57.384Z,8.90
2018-09-08T01:51:25.748Z,8.87
2018-09-08T01:53:54.097Z,8.30
2018-09-08T01:56:22.533Z,8.63
2018-09-08T01:58:51.019Z,8.67
2018-09-08T02:01:19.587Z,7.63
2018-09-08T02:03:48.165Z,9.07
2018-09-08T02:06:16.645Z,8.07
2018-09-08T02:08:45.010Z,9.17
2018-09-08T02:11:13.385Z,8.83
2018-09-08T02:13:41.734Z,10.10
2018-09-08T02:16:10.275Z,7.77
2018-09-08T02:18:38.727Z,9.70
2018-09-08T02:21:07.228Z,8.97
2018-09-08T02:23:35.614Z,8.70
2018-09-08T02:26:04.216Z,10.60
2018-09-08T02:28:33.395Z,8.90
2018-09-08T02:31:02.105Z,8.70
2018-09-08T02:33:30.559Z,9.30
2018-09-08T02:35:59.019Z,9.10
2018-09-08T02:38:27.529Z,8.73
2018-09-08T02:40:55.999Z,9.53
2018-09-08T02:43:24.527Z,9.27
2018-09-08T02:45:53.018Z,9.90
2018-09-08T02:48:21.404Z,9.53
2018-09-08T02:50:48.651Z,9.07
2018-09-08T02:53:15.964Z,11.23
2018-09-08T02:55:43.214Z,9.50
2018-09-08T02:58:10.497Z,10.80
2018-09-08T03:00:37.742Z,9.47
2018-09-08T03:03:05.916Z,8.17
2018-09-08T03:05:33.151Z,9.80
2018-09-08T03:08:00.409Z,8.10
2018-09-08T03:10:27.670Z,9.17
2018-09-08T03:12:54.938Z,10.03
2018-09-08T03:15:22.196Z,8.43
2018-09-08T03:17:49.442Z,8.33
2018-09-08T03:20:16.741Z,8.60
2018-09-08T03:22:43.991Z,8.50
2018-09-08T03:25:11.304Z,9.17
2018-09-08T03:27:38.551Z,8.67
2018-09-08T03:30:05.813Z,9.10
2018-09-08T03:32:33.058Z,7.77
2018-09-08T03:35:00.347Z,8.90
2018-09-08T03:37:27.618Z,9.80
2018-09-08T03:39:54.904Z,10.57
2018-09-08T03:42:22.158Z,8.37
2018-09-08T03:44:49.413Z,9.90
2018-09-08T03:47:16.641Z,8.73
2018-09-08T03:49:43.909Z,9.73
2018-09-08T03:52:11.152Z,8.03
2018-09-08T03:54:38.417Z,7.47
2018-09-08T03:57:05.672Z,8.07
2018-09-08T03:59:32.948Z,9.00
2018-09-08T04:02:00.203Z,7.90
2018-09-08T04:04:28.642Z,9.37
2018-09-08T04:06:57.254Z,8.40
2018-09-08T04:09:25.713Z,7.17
2018-09-08T04:11:54.100Z,10.77
2018-09-08T04:14:22.816Z,8.90
2018-09-08T04:16:51.491Z,7.57
2018-09-08T04:19:19.847Z,7.33
2018-09-08T04:21:48.351Z,9.47
2018-09-08T04:24:16.797Z,8.57
2018-09-08T04:26:45.279Z,9.07
2018-09-08T04:29:13.768Z,7.73
2018-09-08T04:31:42.561Z,9.30
2018-09-08T04:34:11.011Z,7.90
2018-09-08T04:36:39.437Z,7.97
2018-09-08T04:39:09.755Z,10.93
2018-09-08T04:41:38.218Z,9.37
2018-09-08T04:44:06.751Z,8.83
2018-09-08T04:46:35.130Z,9.03
2018-09-08T04:49:03.555Z,9.00
2018-09-08T04:51:31.930Z,9.60
2018-09-08T04:54:00.318Z,8.57
2018-09-08T04:56:28.702Z,8.73
2018-09-08T04:58:57.102Z,7.73
2018-09-08T05:01:25.671Z,9.03
2018-09-08T05:03:54.062Z,9.90
2018-09-08T05:06:22.419Z,8.60
2018-09-08T05:08:50.767Z,7.80
2018-09-08T05:11:19.117Z,8.27
2018-09-08T05:13:47.566Z,9.37
2018-09-08T05:16:15.929Z,7.70
2018-09-08T05:18:44.326Z,8.23
2018-09-08T05:21:12.814Z,6.90
2018-09-08T05:23:41.279Z,7.87
2018-09-08T05:26:09.966Z,11.13
2018-09-08T05:28:38.494Z,8.20
2018-09-08T05:31:07.018Z,8.00
2018-09-08T05:33:35.439Z,8.17
2018-09-08T05:36:03.872Z,8.17
2018-09-08T05:38:32.251Z,7.20
2018-09-08T05:41:00.739Z,6.77
2018-09-08T05:43:29.095Z,8.70
2018-09-08T05:45:57.583Z,7.03
2018-09-08T05:48:26.073Z,6.37
2018-09-08T05:50:54.472Z,5.60
2018-09-08T05:53:22.924Z,5.97
2018-09-08T05:55:51.383Z,7.00
2018-09-08T05:58:19.952Z,6.07
2018-09-08T06:00:48.402Z,6.90
2018-09-08T06:03:16.830Z,6.63
2018-09-08T06:05:45.260Z,6.17
2018-09-08T06:08:13.642Z,6.30
2018-09-08T06:52:32.586Z,8.93
2018-09-08T06:55:01.013Z,8.70
2018-09-08T06:57:29.487Z,8.90
2018-09-08T06:59:58.327Z,8.38
2018-09-08T07:02:26.694Z,9.43
2018-09-08T07:04:55.256Z,9.48
2018-09-08T07:07:23.669Z,8.90
2018-09-08T07:09:52.416Z,8.10
2018-09-08T07:12:20.822Z,8.85
2018-09-08T07:14:49.935Z,6.58
2018-09-08T07:17:18.413Z,6.00
2018-09-08T07:19:46.855Z,3.90
2018-09-08T07:22:15.654Z,5.08
2018-09-08T07:24:44.054Z,4.10
2018-09-08T07:27:12.531Z,4.45
2018-09-08T07:29:40.995Z,4.20
2018-09-08T07:32:09.508Z,5.00
2018-09-08T07:34:38.420Z,4.90
2018-09-08T07:37:06.906Z,5.28
2018-09-08T07:39:35.353Z,4.30
2018-09-08T07:42:03.813Z,3.83
2018-09-08T07:44:32.241Z,4.23
2018-09-08T07:47:00.742Z,6.00
2018-09-08T07:49:29.234Z,3.20
2018-09-08T07:51:57.626Z,3.10
2018-09-08T07:54:26.101Z,3.33
2018-09-08T07:56:54.452Z,3.50
2018-09-08T07:59:22.979Z,4.73
2018-09-08T08:01:51.384Z,3.00
2018-09-08T08:04:19.833Z,2.40
2018-09-08T08:06:48.184Z,5.77
2018-09-08T08:09:16.636Z,2.70
2018-09-08T08:11:45.110Z,3.50
2018-09-08T08:14:13.483Z,2.53
2018-09-08T08:16:41.966Z,3.03
2018-09-08T08:19:10.449Z,3.00
2018-09-08T08:21:38.966Z,2.43
2018-09-08T08:24:07.350Z,2.90
2018-09-08T08:26:35.833Z,3.00
2018-09-08T08:29:04.268Z,3.27
2018-09-08T08:31:32.640Z,2.43
2018-09-08T08:34:01.006Z,4.17
2018-09-08T08:36:29.529Z,2.57
2018-09-08T08:38:58.659Z,3.93
2018-09-08T08:41:27.187Z,2.50
2018-09-08T08:43:55.597Z,2.57
2018-09-08T08:46:24.003Z,2.70
2018-09-08T08:48:52.430Z,3.80
2018-09-08T08:51:31.919Z,6.57
2018-09-08T08:54:11.514Z,2.60
2018-09-08T08:56:40.104Z,4.80
2018-09-08T08:59:08.474Z,2.60
2018-09-08T09:01:36.889Z,3.17
2018-09-08T09:04:05.272Z,4.00
2018-09-08T09:06:34.124Z,2.33
2018-09-08T09:09:02.504Z,2.73
2018-09-08T09:11:30.906Z,2.80
2018-09-08T09:13:59.749Z,6.50
2018-09-08T09:16:28.132Z,3.00
2018-09-08T09:19:07.888Z,2.27
2018-09-08T09:21:47.665Z,3.20
2018-09-08T09:24:27.770Z,3.07
2018-09-08T09:26:55.811Z,2.70
2018-09-08T09:29:24.154Z,3.40
2018-09-08T09:31:52.563Z,3.40
2018-09-08T09:34:20.910Z,5.30
2018-09-08T09:36:49.477Z,2.60
2018-09-08T09:39:17.845Z,2.10
2018-09-08T09:41:46.358Z,4.00
2018-09-08T09:44:14.894Z,3.83
2018-09-08T09:46:43.320Z,2.50
2018-09-08T09:49:11.680Z,2.95
2018-09-08T09:51:40.115Z,3.80
2018-09-08T09:54:08.514Z,2.85
2018-09-08T09:56:36.960Z,2.42
2018-09-08T09:59:05.407Z,2.95
2018-09-08T10:01:39.038Z,3.77
2018-09-08T10:04:07.461Z,4.08
2018-09-08T10:06:35.902Z,2.55
2018-09-08T10:09:05.347Z,2.67
2018-09-08T10:11:33.766Z,4.30
2018-09-08T10:14:02.174Z,2.80
2018-09-08T10:16:30.713Z,2.03
2018-09-08T10:18:59.142Z,2.23
2018-09-08T10:21:27.579Z,4.57
2018-09-08T10:24:05.156Z,2.77
2018-09-08T10:26:24.473Z,2.40
2018-09-08T10:28:52.901Z,3.70
2018-09-08T10:31:21.357Z,2.50
2018-09-08T10:33:49.965Z,3.50
2018-09-08T10:36:18.435Z,3.40
2018-09-08T10:38:46.915Z,3.37
2018-09-08T10:41:15.338Z,2.50
2018-09-08T10:43:43.878Z,2.00
2018-09-08T10:46:12.309Z,3.65
2018-09-08T10:48:40.845Z,2.50
2018-09-08T10:51:22.836Z,3.70
2018-09-08T10:53:51.294Z,3.30
2018-09-08T10:56:19.763Z,2.67
2018-09-08T10:58:48.188Z,3.40
2018-09-08T11:01:16.547Z,2.37
2018-09-08T11:03:45.077Z,3.58
2018-09-08T11:06:13.636Z,3.40
2018-09-08T11:08:43.626Z,2.77
2018-09-08T11:11:12.008Z,3.00
2018-09-08T11:13:40.497Z,2.20
2018-09-08T11:16:08.942Z,3.00
2018-09-08T11:18:37.371Z,3.60
2018-09-08T11:21:05.829Z,2.90
2018-09-08T11:23:34.380Z,3.45
2018-09-08T11:26:02.855Z,2.10
2018-09-08T11:28:31.273Z,3.92
2018-09-08T11:30:59.699Z,2.20
2018-09-08T11:33:28.124Z,2.58
2018-09-08T11:35:56.639Z,3.40
2018-09-08T11:38:25.134Z,2.22
2018-09-08T11:40:53.626Z,2.60
2018-09-08T11:43:22.141Z,2.70
2018-09-08T11:45:50.764Z,2.22
2018-09-08T11:48:19.214Z,3.17
2018-09-08T11:50:47.605Z,2.12
2018-09-08T11:53:16.117Z,3.10
2018-09-08T11:55:44.670Z,2.20
2018-09-08T11:58:13.001Z,2.22
2018-09-08T12:00:41.396Z,2.40
2018-09-08T12:03:09.797Z,2.87
2018-09-08T12:05:38.205Z,3.27
2018-09-08T12:08:06.773Z,3.40
2018-09-08T12:10:35.321Z,1.95
2018-09-08T12:13:03.718Z,2.35
2018-09-08T12:15:32.349Z,2.65
2018-09-08T12:18:00.677Z,3.30
2018-09-08T12:20:29.077Z,2.02
2018-09-08T12:22:57.568Z,3.25
2018-09-08T12:25:26.025Z,2.20
2018-09-08T12:27:54.597Z,2.60
2018-09-08T12:30:23.009Z,3.75
2018-09-08T12:32:51.420Z,2.80
2018-09-08T12:35:19.901Z,2.40
2018-09-08T12:37:48.284Z,2.42
2018-09-08T12:40:16.662Z,2.62
2018-09-08T12:42:45.070Z,2.40
2018-09-08T12:45:13.627Z,2.20
2018-09-08T12:47:42.159Z,1.85
2018-09-08T12:50:10.625Z,2.37
2018-09-08T12:52:39.066Z,2.20
2018-09-08T12:55:07.480Z,2.20
2018-09-08T12:57:35.870Z,3.25
2018-09-08T13:00:04.331Z,2.12
2018-09-08T13:02:32.802Z,2.47
2018-09-08T13:05:01.295Z,2.35
2018-09-08T13:07:29.716Z,2.80
2018-09-08T13:09:58.043Z,2.70
2018-09-08T13:12:26.461Z,2.25
2018-09-08T13:14:55.033Z,2.30
2018-09-08T13:17:23.505Z,2.05
2018-09-08T13:19:51.996Z,2.72
2018-09-08T13:22:20.439Z,2.08
2018-09-08T13:24:48.957Z,1.85
2018-09-08T13:27:17.329Z,1.80
2018-09-08T13:29:45.759Z,2.27
2018-09-08T13:32:14.135Z,2.50
2018-09-08T13:34:42.643Z,2.50
2018-09-08T13:37:11.227Z,2.20
2018-09-08T13:39:39.730Z,2.72
2018-09-08T13:42:08.243Z,3.00
2018-09-08T13:44:36.768Z,2.00
2018-09-08T13:47:05.534Z,1.90
2018-09-08T13:49:34.015Z,2.12
2018-09-08T13:52:02.378Z,1.87
2018-09-08T13:54:30.918Z,2.52
2018-09-08T13:56:59.431Z,2.30
2018-09-08T13:59:27.940Z,1.80
2018-09-08T14:01:56.413Z,2.00
2018-09-08T14:04:24.950Z,3.08
2018-09-08T14:06:53.419Z,2.00
2018-09-08T14:09:21.838Z,2.58
2018-09-08T14:11:50.315Z,1.75
2018-09-08T14:14:18.870Z,2.70
2018-09-08T14:16:47.403Z,2.40
2018-09-08T14:19:15.890Z,2.00
2018-09-08T14:21:44.295Z,3.27
2018-09-08T14:24:12.737Z,2.17
2018-09-08T14:26:41.231Z,1.80
2018-09-08T14:29:09.888Z,2.50
2018-09-08T14:31:38.293Z,1.82
2018-09-08T14:34:06.749Z,3.20
2018-09-08T14:36:35.293Z,1.90
2018-09-08T14:39:04.842Z,3.67
2018-09-08T14:41:33.323Z,1.70
2018-09-08T14:44:01.763Z,1.80
2018-09-08T14:46:30.303Z,2.85
2018-09-08T14:48:58.937Z,2.20
2018-09-08T14:51:27.573Z,3.15
2018-09-08T14:53:56.033Z,3.30
2018-09-08T14:56:24.462Z,3.10
2018-09-08T14:58:52.871Z,2.50
2018-09-08T15:01:21.316Z,1.95
2018-09-08T15:03:49.858Z,2.20
2018-09-08T15:06:18.253Z,2.30
2018-09-08T15:08:46.772Z,2.00
2018-09-08T15:11:15.176Z,2.50
2018-09-08T15:13:43.535Z,1.90
2018-09-08T15:16:12.111Z,1.77
2018-09-08T15:18:40.470Z,1.80
2018-09-08T15:21:08.886Z,3.25
2018-09-08T15:23:37.404Z,2.80
2018-09-08T15:26:06.038Z,3.60
2018-09-08T15:28:34.474Z,2.30
2018-09-08T15:31:02.927Z,1.80
2018-09-08T15:33:31.583Z,2.40
2018-09-08T15:36:00.080Z,2.45
2018-09-08T15:38:28.458Z,3.20
2018-09-08T15:40:56.899Z,2.22
2018-09-08T15:43:25.327Z,2.02
2018-09-08T15:45:53.708Z,2.20
2018-09-08T15:48:22.177Z,3.08
2018-09-08T15:50:50.617Z,2.17
2018-09-08T15:53:19.110Z,1.90
2018-09-08T15:55:47.490Z,3.05
2018-09-08T15:58:15.991Z,1.80
2018-09-08T16:00:44.470Z,1.90
2018-09-08T16:03:12.906Z,2.80
2018-09-08T16:05:41.404Z,2.58
2018-09-08T16:08:09.869Z,1.90
2018-09-08T16:10:38.595Z,2.35
2018-09-08T16:13:08.134Z,2.52
2018-09-08T16:15:36.894Z,2.33
2018-09-08T16:18:05.813Z,3.10
2018-09-08T16:20:34.239Z,2.50
2018-09-08T16:23:02.642Z,2.70
2018-09-08T16:25:31.227Z,2.12
2018-09-08T16:27:59.665Z,1.90
2018-09-08T16:30:28.044Z,2.70
2018-09-08T16:32:56.423Z,3.37
2018-09-08T16:35:24.965Z,3.33
2018-09-08T16:37:53.432Z,2.58
2018-09-08T16:40:21.793Z,2.37
2018-09-08T16:42:50.148Z,1.80
2018-09-08T16:45:18.597Z,2.13
2018-09-08T16:47:47.081Z,2.10
2018-09-08T16:50:15.685Z,2.57
2018-09-08T16:52:44.015Z,2.67
2018-09-08T16:55:12.452Z,3.00
2018-09-08T16:57:40.943Z,3.13
2018-09-08T17:00:09.363Z,3.70
2018-09-08T17:02:37.751Z,3.53
2018-09-08T17:05:06.407Z,2.83
2018-09-08T17:07:34.860Z,4.07
2018-09-08T17:10:03.266Z,4.53
2018-09-08T17:12:31.702Z,5.80
2018-09-08T17:15:00.219Z,5.30
2018-09-08T17:17:28.614Z,3.37
2018-09-08T17:19:57.053Z,2.80
2018-09-08T17:22:25.539Z,2.67
2018-09-08T17:24:53.996Z,5.03
2018-09-08T17:27:22.431Z,3.50
2018-09-08T17:29:50.828Z,3.60
2018-09-08T17:32:19.409Z,3.30
2018-09-08T17:34:47.716Z,5.13
2018-09-08T17:37:16.115Z,4.90
2018-09-08T17:39:44.619Z,5.70
2018-09-08T17:42:13.041Z,6.33
2018-09-08T17:44:41.571Z,3.30
2018-09-08T17:47:10.076Z,4.17
2018-09-08T17:49:38.466Z,5.97
2018-09-08T17:52:07.034Z,5.43
2018-09-08T17:54:35.376Z,8.97
2018-09-08T17:57:03.914Z,7.10
2018-09-08T17:59:32.354Z,6.03
2018-09-08T18:02:00.838Z,7.80
2018-09-08T18:04:29.258Z,7.07
2018-09-08T18:06:57.791Z,5.63
2018-09-08T18:09:26.255Z,3.17
2018-09-08T18:11:54.763Z,3.50
2018-09-08T18:14:23.226Z,5.07
2018-09-08T18:16:51.705Z,3.80
2018-09-08T18:19:20.162Z,2.63
2018-09-08T18:21:48.777Z,4.03
2018-09-08T18:24:17.161Z,4.23
2018-09-08T18:26:45.662Z,3.73
2018-09-08T18:29:14.210Z,3.90
2018-09-08T18:31:42.656Z,5.70
2018-09-08T18:34:11.137Z,3.87
2018-09-08T18:36:39.610Z,3.63
2018-09-08T18:39:08.139Z,3.80
2018-09-08T18:41:36.864Z,3.77
2018-09-08T18:44:05.405Z,3.83
2018-09-08T18:46:33.755Z,5.50
2018-09-08T18:49:02.237Z,4.20
2018-09-08T18:51:30.661Z,4.13
2018-09-08T18:53:59.192Z,3.30
2018-09-08T18:56:27.863Z,3.00
2018-09-08T18:58:56.521Z,3.33
2018-09-08T19:01:25.006Z,5.33
2018-09-08T19:03:53.492Z,2.93
2018-09-08T19:06:21.995Z,3.93
2018-09-08T19:08:50.375Z,3.30
2018-09-08T19:11:18.770Z,3.83
2018-09-08T19:13:47.213Z,4.50
2018-09-08T19:16:15.800Z,4.47
2018-09-08T19:18:44.259Z,3.17
2018-09-08T19:21:12.720Z,4.03
2018-09-08T19:23:41.131Z,4.07
2018-09-08T19:26:09.680Z,4.83
2018-09-08T19:28:38.244Z,7.80
2018-09-08T19:31:06.666Z,4.23
2018-09-08T19:33:35.138Z,3.70
2018-09-08T19:36:03.704Z,3.30
2018-09-08T19:38:32.130Z,4.27
2018-09-08T19:41:00.560Z,5.53
2018-09-08T19:43:29.071Z,4.10
2018-09-08T19:45:57.607Z,4.60
2018-09-08T19:48:26.099Z,4.10
2018-09-08T19:50:54.494Z,5.20
2018-09-08T19:53:28.449Z,4.73
2018-09-08T19:55:56.962Z,5.40
2018-09-08T19:58:30.801Z,4.73
2018-09-08T20:00:59.338Z,4.47
2018-09-08T20:03:28.014Z,4.60
2018-09-08T20:05:56.527Z,4.43
2018-09-08T20:08:25.047Z,4.47
2018-09-08T20:10:53.577Z,6.10
2018-09-08T20:13:22.059Z,5.20
2018-09-08T20:15:50.602Z,6.12
2018-09-08T20:18:19.134Z,8.30
2018-09-08T20:20:47.613Z,6.20
2018-09-08T20:23:16.178Z,6.30
2018-09-08T20:25:44.670Z,9.13
2018-09-08T20:28:13.194Z,7.07
2018-09-08T20:30:41.674Z,7.30
2018-09-08T20:33:10.113Z,7.83
2018-09-08T20:35:38.666Z,8.37
2018-09-08T20:38:07.191Z,6.40
2018-09-08T20:40:35.782Z,6.90
2018-09-08T20:43:04.349Z,6.43
2018-09-08T20:45:32.884Z,6.70
2018-09-08T20:48:01.466Z,7.00
2018-09-08T20:50:29.986Z,6.67
2018-09-08T20:52:58.454Z,5.57
2018-09-08T20:55:27.263Z,7.20
2018-09-08T20:57:55.761Z,6.03
2018-09-08T21:00:24.336Z,7.10
2018-09-08T21:02:52.830Z,10.27
2018-09-08T21:05:21.304Z,8.60
2018-09-08T21:07:49.762Z,9.33
2018-09-08T21:10:18.250Z,7.17
2018-09-08T21:12:46.734Z,5.60
2018-09-08T21:15:15.259Z,5.83
2018-09-08T21:17:43.757Z,6.17
2018-09-08T21:20:12.381Z,8.20
2018-09-08T21:22:40.855Z,6.20
2018-09-08T21:25:09.321Z,6.60
2018-09-08T21:27:37.867Z,6.27
2018-09-08T21:30:06.408Z,6.47
2018-09-08T21:32:34.859Z,7.37
2018-09-08T21:35:03.327Z,6.93
2018-09-08T21:37:31.767Z,7.00
2018-09-08T21:40:00.283Z,5.43
2018-09-08T21:42:29.195Z,6.63
2018-09-08T21:44:57.723Z,6.17
2018-09-08T21:47:26.685Z,5.93
2018-09-08T21:49:55.231Z,6.33
2018-09-08T21:52:23.743Z,6.57
2018-09-08T21:54:52.928Z,7.53
2018-09-08T21:57:21.459Z,7.17
2018-09-08T21:59:49.848Z,8.10
2018-09-08T22:02:18.242Z,7.70
2018-09-08T22:04:46.617Z,7.70
2018-09-08T22:07:15.150Z,8.17
2018-09-08T22:09:43.598Z,7.00
2018-09-08T22:12:12.398Z,10.53
2018-09-08T22:14:41.280Z,7.60
2018-09-08T22:17:09.706Z,6.80
2018-09-08T22:19:38.187Z,9.73
2018-09-08T22:22:06.770Z,8.00
2018-09-08T22:24:35.195Z,7.57
2018-09-08T22:27:03.558Z,8.83
2018-09-08T22:29:31.995Z,8.40
2018-09-08T22:32:00.564Z,7.80
2018-09-08T22:34:29.102Z,9.40
2018-09-08T22:36:57.585Z,7.97
2018-09-08T22:39:26.075Z,7.07
2018-09-08T22:41:54.546Z,8.87
2018-09-08T22:44:23.049Z,8.37
2018-09-08T22:46:51.517Z,9.50
2018-09-08T22:49:19.963Z,9.23
2018-09-08T22:51:48.481Z,9.20
2018-09-08T22:54:17.062Z,9.33
2018-09-08T22:56:45.530Z,9.20
2018-09-08T22:59:13.954Z,8.97
2018-09-08T23:01:42.411Z,9.07
2018-09-08T23:04:10.855Z,8.83
2018-09-08T23:06:39.335Z,8.57
2018-09-08T23:09:08.067Z,9.63
2018-09-08T23:11:36.494Z,8.27
2018-09-08T23:14:04.969Z,8.93
2018-09-08T23:16:33.464Z,9.13
2018-09-08T23:19:01.859Z,9.13
2018-09-08T23:21:30.318Z,8.93
2018-09-08T23:23:58.707Z,8.70
2018-09-08T23:26:27.164Z,8.93
2018-09-08T23:28:55.741Z,13.60
2018-09-08T23:31:24.223Z,8.30
2018-09-08T23:33:52.682Z,9.40
2018-09-08T23:36:21.243Z,8.50
2018-09-08T23:38:49.682Z,11.60
2018-09-08T23:41:18.083Z,8.00
2018-09-08T23:43:46.535Z,10.20
2018-09-08T23:46:15.056Z,7.90
2018-09-08T23:48:43.453Z,8.03
2018-09-08T23:51:11.888Z,7.83
2018-09-08T23:53:40.363Z,10.23
2018-09-08T23:56:08.843Z,8.27
2018-09-08T23:58:37.353Z,8.17
